createdAt,value
2018-05-23T00:01:22.988Z,17.80
2018-05-23T00:03:53.707Z,17.80
2018-05-23T00:06:24.543Z,17.70
2018-05-23T00:08:55.624Z,17.70
2018-05-23T00:11:26.605Z,17.70
2018-05-23T00:13:57.962Z,17.60
2018-05-23T00:16:29.776Z,17.70
2018-05-23T00:19:01.173Z,17.60
2018-05-23T00:21:31.977Z,17.50
2018-05-23T00:24:03.748Z,17.50
2018-05-23T00:26:35.502Z,17.50
2018-05-23T00:29:06.838Z,17.50
2018-05-23T00:31:37.819Z,17.50
2018-05-23T00:34:09.582Z,17.50
2018-05-23T00:36:40.392Z,17.50
2018-05-23T00:39:11.362Z,17.50
2018-05-23T00:41:43.309Z,17.50
2018-05-23T00:44:14.285Z,17.50
2018-05-23T00:46:45.417Z,17.50
2018-05-23T00:49:15.922Z,17.50
2018-05-23T00:51:47.277Z,17.50
2018-05-23T00:54:17.962Z,17.40
2018-05-23T00:56:48.494Z,17.30
2018-05-23T00:59:19.405Z,17.40
2018-05-23T01:01:51.094Z,17.40
2018-05-23T01:04:21.779Z,17.40
2018-05-23T01:06:52.961Z,17.30
2018-05-23T01:09:25.405Z,17.30
2018-05-23T01:11:56.470Z,17.30
2018-05-23T01:14:27.354Z,17.30
2018-05-23T01:16:59.741Z,17.30
2018-05-23T01:19:30.260Z,17.40
2018-05-23T01:22:02.085Z,17.40
2018-05-23T01:24:34.712Z,17.40
2018-05-23T01:27:06.717Z,17.30
2018-05-23T01:29:37.311Z,17.30
2018-05-23T01:32:08.611Z,17.30
2018-05-23T01:34:40.544Z,17.20
2018-05-23T01:37:11.559Z,17.20
2018-05-23T01:39:43.126Z,17.00
2018-05-23T01:42:14.034Z,17.00
2018-05-23T01:44:44.707Z,17.00
2018-05-23T01:47:17.102Z,17.00
2018-05-23T01:49:49.218Z,17.10
2018-05-23T01:52:21.366Z,17.20
2018-05-23T01:54:51.911Z,17.20
2018-05-23T01:57:23.794Z,17.20
2018-05-23T01:59:55.827Z,17.10
2018-05-23T02:02:26.707Z,17.10
2018-05-23T02:04:59.454Z,17.10
2018-05-23T02:07:30.858Z,17.10
2018-05-23T02:10:02.477Z,17.10
2018-05-23T02:12:33.370Z,17.10
2018-05-23T02:15:04.690Z,17.10
2018-05-23T02:17:35.991Z,17.00
2018-05-23T02:20:06.471Z,17.00
2018-05-23T02:22:38.581Z,17.00
2018-05-23T02:25:09.314Z,17.00
2018-05-23T02:27:40.332Z,17.00
2018-05-23T02:30:11.784Z,17.00
2018-05-23T02:32:43.361Z,17.00
2018-05-23T02:35:15.038Z,17.00
2018-05-23T02:37:46.174Z,17.00
2018-05-23T02:40:17.626Z,16.90
2018-05-23T02:42:48.520Z,16.90
2018-05-23T02:45:20.042Z,16.90
2018-05-23T02:47:50.723Z,16.90
2018-05-23T02:50:22.355Z,16.90
2018-05-23T02:52:53.263Z,16.90
2018-05-23T02:55:24.006Z,16.90
2018-05-23T02:57:54.830Z,16.90
2018-05-23T03:00:30.941Z,16.80
2018-05-23T03:03:02.348Z,16.70
2018-05-23T03:05:32.917Z,16.70
2018-05-23T03:08:03.785Z,16.70
2018-05-23T03:10:34.586Z,16.70
2018-05-23T03:13:05.474Z,16.70
2018-05-23T03:15:36.817Z,16.60
2018-05-23T03:18:07.674Z,16.60
2018-05-23T03:20:39.014Z,16.60
2018-05-23T03:23:09.837Z,16.60
2018-05-23T03:25:42.790Z,16.70
2018-05-23T03:28:14.695Z,16.60
2018-05-23T03:30:45.641Z,16.70
2018-05-23T03:33:16.913Z,16.60
2018-05-23T03:35:48.738Z,16.60
2018-05-23T03:38:19.382Z,16.60
2018-05-23T03:40:51.065Z,16.60
2018-05-23T03:43:22.293Z,16.60
2018-05-23T03:45:53.148Z,16.70
2018-05-23T03:48:24.388Z,16.60
2018-05-23T03:50:56.184Z,16.60
2018-05-23T03:53:27.993Z,16.60
2018-05-23T03:56:00.480Z,16.50
2018-05-23T03:58:32.920Z,16.50
2018-05-23T04:01:15.898Z,16.30
2018-05-23T04:06:01.062Z,16.30
2018-05-23T04:08:31.725Z,16.30
2018-05-23T04:11:04.121Z,16.30
2018-05-23T04:13:35.001Z,16.30
2018-05-23T04:16:06.345Z,16.40
2018-05-23T04:18:36.961Z,16.50
2018-05-23T04:21:10.653Z,16.40
2018-05-23T04:23:41.518Z,16.50
2018-05-23T04:26:13.654Z,16.60
2018-05-23T04:28:45.668Z,16.50
2018-05-23T04:31:16.404Z,16.50
2018-05-23T04:33:51.567Z,16.50
2018-05-23T04:36:23.217Z,16.50
2018-05-23T04:39:40.954Z,16.40
2018-05-23T04:42:15.894Z,16.40
2018-05-23T04:44:48.299Z,16.30
2018-05-23T04:47:19.434Z,16.30
2018-05-23T04:49:52.677Z,16.30
2018-05-23T04:52:23.390Z,16.30
2018-05-23T04:54:54.217Z,16.30
2018-05-23T04:57:26.286Z,16.30
2018-05-23T04:59:57.627Z,16.20
2018-05-23T05:02:30.008Z,16.30
2018-05-23T05:05:00.927Z,16.40
2018-05-23T05:07:32.252Z,16.40
2018-05-23T05:10:10.394Z,16.30
2018-05-23T05:12:41.069Z,16.20
2018-05-23T05:15:13.282Z,16.40
2018-05-23T05:17:44.890Z,16.50
2018-05-23T05:20:16.938Z,16.50
2018-05-23T05:22:54.537Z,16.50
2018-05-23T05:25:32.134Z,16.50
2018-05-23T05:28:03.474Z,16.60
2018-05-23T05:30:35.356Z,16.70
2018-05-23T05:33:06.250Z,16.80
2018-05-23T05:35:37.679Z,17.00
2018-05-23T05:38:10.918Z,17.00
2018-05-23T05:40:41.800Z,17.10
2018-05-23T05:43:12.430Z,17.10
2018-05-23T05:45:43.488Z,17.10
2018-05-23T05:48:14.477Z,17.20
2018-05-23T05:51:02.806Z,17.20
2018-05-23T05:53:59.387Z,17.30
2018-05-23T05:56:32.227Z,17.30
2018-05-23T05:59:03.110Z,17.40
2018-05-23T06:01:34.020Z,17.50
2018-05-23T06:04:04.831Z,17.60
2018-05-23T06:06:35.709Z,17.40
2018-05-23T06:09:07.775Z,17.50
2018-05-23T06:11:39.036Z,17.50
2018-05-23T06:14:12.025Z,17.60
2018-05-23T06:16:42.845Z,17.60
2018-05-23T06:19:13.741Z,17.70
2018-05-23T06:21:44.527Z,17.80
2018-05-23T06:24:16.467Z,17.80
2018-05-23T06:26:47.501Z,18.00
2018-05-23T06:29:19.704Z,17.90
2018-05-23T06:31:51.531Z,17.90
2018-05-23T06:34:22.241Z,18.10
2018-05-23T06:36:54.765Z,18.40
2018-05-23T06:39:25.650Z,18.40
2018-05-23T06:41:56.781Z,18.60
2018-05-23T06:44:27.723Z,18.90
2018-05-23T06:46:58.575Z,19.10
2018-05-23T06:49:38.665Z,19.40
2018-05-23T06:52:12.358Z,19.40
2018-05-23T06:54:58.564Z,19.40
2018-05-23T06:57:30.436Z,19.40
2018-05-23T07:00:01.341Z,19.30
2018-05-23T07:02:32.805Z,19.50
2018-05-23T07:05:04.019Z,19.60
2018-05-23T07:07:34.889Z,19.80
2018-05-23T07:10:06.099Z,19.70
2018-05-23T07:12:37.593Z,20.10
2018-05-23T07:15:09.368Z,20.10
2018-05-23T07:17:41.513Z,20.40
2018-05-23T07:20:17.315Z,20.50
2018-05-23T07:22:49.070Z,20.70
2018-05-23T07:25:20.154Z,20.80
2018-05-23T07:27:53.237Z,20.80
2018-05-23T07:30:27.651Z,20.90
2018-05-23T07:32:58.727Z,21.40
2018-05-23T07:35:29.560Z,21.70
2018-05-23T07:38:27.205Z,22.00
2018-05-23T07:41:16.345Z,22.10
2018-05-23T07:47:01.302Z,22.60
2018-05-23T07:49:32.922Z,22.80
2018-05-23T07:52:03.695Z,23.20
2018-05-23T07:54:34.731Z,22.80
2018-05-23T07:57:06.493Z,22.90
2018-05-23T07:59:39.189Z,23.00
2018-05-23T08:02:10.140Z,22.90
2018-05-23T08:04:42.095Z,22.40
2018-05-23T08:07:13.552Z,22.80
2018-05-23T08:09:44.584Z,22.70
2018-05-23T08:12:15.886Z,23.10
2018-05-23T08:14:47.866Z,23.00
2018-05-23T08:17:18.786Z,22.80
2018-05-23T08:19:50.824Z,22.90
2018-05-23T08:22:22.654Z,22.90
2018-05-23T08:24:54.231Z,22.90
2018-05-23T08:27:26.219Z,23.30
2018-05-23T08:29:58.009Z,23.40
2018-05-23T08:32:28.819Z,24.00
2018-05-23T08:35:02.213Z,24.50
2018-05-23T08:37:33.808Z,24.80
2018-05-23T08:40:05.421Z,25.20
2018-05-23T08:42:37.477Z,25.20
2018-05-23T08:45:08.572Z,25.50
2018-05-23T08:47:39.609Z,25.30
2018-05-23T08:50:11.002Z,25.40
2018-05-23T08:52:42.181Z,25.10
2018-05-23T08:55:13.444Z,25.10
2018-05-23T08:57:45.570Z,24.80
2018-05-23T09:00:19.538Z,24.60
2018-05-23T09:02:50.735Z,24.60
2018-05-23T09:05:22.673Z,24.50
2018-05-23T09:07:55.006Z,24.60
2018-05-23T09:10:28.761Z,24.60
2018-05-23T09:13:02.066Z,25.40
2018-05-23T09:15:34.114Z,25.40
2018-05-23T09:18:06.452Z,24.70
2018-05-23T09:20:37.626Z,24.80
2018-05-23T09:23:15.141Z,25.10
2018-05-23T09:25:47.518Z,25.10
2018-05-23T09:28:19.377Z,25.10
2018-05-23T09:30:52.440Z,25.10
2018-05-23T09:33:23.303Z,25.20
2018-05-23T09:35:54.666Z,25.30
2018-05-23T09:38:26.301Z,25.20
2018-05-23T09:40:58.589Z,24.40
2018-05-23T09:43:30.288Z,24.70
2018-05-23T09:46:00.710Z,24.70
2018-05-23T09:48:32.866Z,25.00
2018-05-23T09:51:04.268Z,25.00
2018-05-23T09:53:35.528Z,25.10
2018-05-23T09:56:07.817Z,25.10
2018-05-23T09:58:39.410Z,25.20
2018-05-23T10:01:12.804Z,25.10
2018-05-23T10:03:44.828Z,24.60
2018-05-23T10:06:17.095Z,24.30
2018-05-23T10:08:49.739Z,24.30
2018-05-23T10:11:20.670Z,24.50
2018-05-23T10:13:52.629Z,24.70
2018-05-23T10:16:23.605Z,24.50
2018-05-23T10:18:54.961Z,24.50
2018-05-23T10:21:25.956Z,24.80
2018-05-23T10:23:56.975Z,24.90
2018-05-23T10:26:28.862Z,24.90
2018-05-23T10:29:00.602Z,25.00
2018-05-23T10:31:31.536Z,25.00
2018-05-23T10:34:02.711Z,24.90
2018-05-23T10:36:33.812Z,24.80
2018-05-23T10:39:05.356Z,24.50
2018-05-23T10:41:37.510Z,24.40
2018-05-23T10:44:08.703Z,24.40
2018-05-23T10:46:41.982Z,24.50
2018-05-23T10:49:13.262Z,24.50
2018-05-23T10:51:44.418Z,23.90
2018-05-23T10:54:15.573Z,24.00
2018-05-23T10:56:48.743Z,24.40
2018-05-23T10:59:20.783Z,24.40
2018-05-23T11:01:52.804Z,24.50
2018-05-23T11:04:24.953Z,24.50
2018-05-23T11:06:57.538Z,24.30
2018-05-23T11:09:30.695Z,24.40
2018-05-23T11:12:02.847Z,24.40
2018-05-23T11:14:36.563Z,24.60
2018-05-23T11:17:09.108Z,24.50
2018-05-23T11:19:41.214Z,24.90
2018-05-23T11:22:13.544Z,24.50
2018-05-23T11:24:47.655Z,24.40
2018-05-23T11:27:18.689Z,24.60
2018-05-23T11:29:49.893Z,24.70
2018-05-23T11:32:21.461Z,24.80
2018-05-23T11:34:52.877Z,24.40
2018-05-23T11:37:23.645Z,24.40
2018-05-23T11:39:54.496Z,24.90
2018-05-23T11:42:24.994Z,25.10
2018-05-23T11:44:56.951Z,25.20
2018-05-23T11:47:28.221Z,25.30
2018-05-23T11:49:59.178Z,25.10
2018-05-23T11:52:31.599Z,24.70
2018-05-23T11:55:03.901Z,24.70
2018-05-23T11:57:35.246Z,24.70
2018-05-23T12:00:06.912Z,25.10
2018-05-23T12:02:40.106Z,24.90
2018-05-23T12:05:11.121Z,24.90
2018-05-23T12:07:42.353Z,25.00
2018-05-23T12:10:13.176Z,25.20
2018-05-23T12:12:44.617Z,24.90
2018-05-23T12:15:15.770Z,24.90
2018-05-23T12:17:46.931Z,24.60
2018-05-23T12:20:18.607Z,24.70
2018-05-23T12:22:49.431Z,24.70
2018-05-23T12:25:23.455Z,24.70
2018-05-23T12:27:54.804Z,24.40
2018-05-23T12:30:26.493Z,24.40
2018-05-23T12:33:18.697Z,24.60
2018-05-23T12:35:54.111Z,24.70
2018-05-23T12:38:25.668Z,25.20
2018-05-23T12:40:59.298Z,25.10
2018-05-23T12:43:30.248Z,25.10
2018-05-23T12:46:01.782Z,25.70
2018-05-23T12:48:34.050Z,25.70
2018-05-23T12:51:06.335Z,25.60
2018-05-23T12:53:37.579Z,25.60
2018-05-23T12:56:09.620Z,25.60
2018-05-23T12:58:40.652Z,25.90
2018-05-23T13:01:12.403Z,26.30
2018-05-23T13:03:45.136Z,26.20
2018-05-23T13:06:17.825Z,25.90
2018-05-23T13:08:49.402Z,25.90
2018-05-23T13:11:21.092Z,25.90
2018-05-23T13:13:52.923Z,26.10
2018-05-23T13:16:26.604Z,25.90
2018-05-23T13:18:58.143Z,25.70
2018-05-23T13:21:47.005Z,25.70
2018-05-23T13:24:25.714Z,25.70
2018-05-23T13:27:12.222Z,25.60
2018-05-23T13:29:50.184Z,25.50
2018-05-23T13:32:33.203Z,25.50
2018-05-23T13:35:04.850Z,25.50
2018-05-23T13:37:43.276Z,25.70
2018-05-23T13:40:22.418Z,25.80
2018-05-23T13:42:53.410Z,26.00
2018-05-23T13:45:24.271Z,26.10
2018-05-23T13:47:55.295Z,26.30
2018-05-23T13:50:26.179Z,26.50
2018-05-23T13:52:58.322Z,26.80
2018-05-23T13:55:30.135Z,27.10
2018-05-23T13:58:02.424Z,27.10
2018-05-23T14:00:33.028Z,27.10
2018-05-23T14:03:04.916Z,26.90
2018-05-23T14:05:36.731Z,26.90
2018-05-23T14:08:08.010Z,27.20
2018-05-23T14:10:39.479Z,27.50
2018-05-23T14:13:11.162Z,27.60
2018-05-23T14:15:44.630Z,27.60
2018-05-23T14:18:16.255Z,27.80
2018-05-23T14:20:48.502Z,27.80
2018-05-23T14:23:19.738Z,27.90
2018-05-23T14:25:51.798Z,28.20
2018-05-23T14:28:24.865Z,28.10
2018-05-23T14:30:55.845Z,28.20
2018-05-23T14:33:29.866Z,27.50
2018-05-23T14:36:07.614Z,27.20
2018-05-23T14:38:43.007Z,27.20
2018-05-23T14:41:14.495Z,27.50
2018-05-23T14:43:45.519Z,27.40
2018-05-23T14:46:17.633Z,27.50
2018-05-23T14:48:48.669Z,26.80
2018-05-23T14:51:20.585Z,27.10
2018-05-23T14:53:51.832Z,27.40
2018-05-23T14:56:23.605Z,27.70
2018-05-23T14:58:54.346Z,27.70
2018-05-23T15:01:25.213Z,27.10
2018-05-23T15:03:56.589Z,27.10
2018-05-23T15:06:27.382Z,27.40
2018-05-23T15:08:58.531Z,27.60
2018-05-23T15:11:29.461Z,27.70
2018-05-23T15:14:00.440Z,27.80
2018-05-23T15:16:31.584Z,28.00
2018-05-23T15:19:02.517Z,28.20
2018-05-23T15:21:34.889Z,28.40
2018-05-23T15:24:05.843Z,28.40
2018-05-23T15:26:38.103Z,28.60
2018-05-23T15:29:09.694Z,28.50
2018-05-23T15:31:41.445Z,28.20
2018-05-23T15:34:13.863Z,28.20
2018-05-23T15:36:45.559Z,28.40
2018-05-23T15:39:17.256Z,27.70
2018-05-23T15:41:49.560Z,27.30
2018-05-23T15:44:21.002Z,27.30
2018-05-23T15:46:52.367Z,27.40
2018-05-23T15:49:24.308Z,27.10
2018-05-23T15:51:55.294Z,27.00
2018-05-23T15:54:28.378Z,26.50
2018-05-23T15:57:00.054Z,26.40
2018-05-23T15:59:31.543Z,26.70
2018-05-23T16:02:02.559Z,26.80
2018-05-23T16:04:33.556Z,26.90
2018-05-23T16:07:04.794Z,27.10
2018-05-23T16:09:35.763Z,27.30
2018-05-23T16:12:07.275Z,27.40
2018-05-23T16:14:39.192Z,27.70
2018-05-23T16:17:10.008Z,27.40
2018-05-23T16:19:41.204Z,26.90
2018-05-23T16:22:12.568Z,26.80
2018-05-23T16:24:44.040Z,26.80
2018-05-23T16:27:15.143Z,26.80
2018-05-23T16:29:47.499Z,26.90
2018-05-23T16:34:43.851Z,27.10
2018-05-23T16:37:15.399Z,26.70
2018-05-23T16:39:47.889Z,26.40
2018-05-23T16:42:19.389Z,26.40
2018-05-23T16:44:50.531Z,26.50
2018-05-23T16:47:27.557Z,26.40
2018-05-23T16:49:58.782Z,26.50
2018-05-23T16:52:30.108Z,26.60
2018-05-23T16:55:01.542Z,26.60
2018-05-23T16:57:33.809Z,26.60
2018-05-23T17:00:04.645Z,26.50
2018-05-23T17:02:36.707Z,26.40
2018-05-23T17:05:08.642Z,26.30
2018-05-23T17:07:39.631Z,26.40
2018-05-23T17:10:10.710Z,26.10
2018-05-23T17:12:42.415Z,26.20
2018-05-23T17:15:13.187Z,26.20
2018-05-23T17:17:44.850Z,26.30
2018-05-23T17:20:16.883Z,26.30
2018-05-23T17:22:48.138Z,26.00
2018-05-23T17:25:20.477Z,25.90
2018-05-23T17:27:54.967Z,25.40
2018-05-23T17:30:26.419Z,25.40
2018-05-23T17:32:57.518Z,25.10
2018-05-23T17:35:28.426Z,25.10
2018-05-23T17:38:00.363Z,25.00
2018-05-23T17:40:32.466Z,24.70
2018-05-23T17:43:05.194Z,24.90
2018-05-23T17:45:36.463Z,24.90
2018-05-23T17:48:07.605Z,24.80
2018-05-23T17:50:38.393Z,24.70
2018-05-23T17:53:10.135Z,24.50
2018-05-23T17:55:42.294Z,24.50
2018-05-23T17:58:14.103Z,24.40
2018-05-23T18:00:45.604Z,24.40
2018-05-23T18:03:16.543Z,24.30
2018-05-23T18:05:47.940Z,24.30
2018-05-23T18:08:19.471Z,24.30
2018-05-23T18:10:50.081Z,24.10
2018-05-23T18:13:21.543Z,24.00
2018-05-23T18:15:54.650Z,23.90
2018-05-23T18:18:26.388Z,23.90
2018-05-23T18:20:57.940Z,23.90
2018-05-23T18:23:29.844Z,23.80
2018-05-23T18:26:02.493Z,23.80
2018-05-23T18:28:33.566Z,23.80
2018-05-23T18:31:04.504Z,23.70
2018-05-23T18:33:35.452Z,23.70
2018-05-23T18:36:06.746Z,23.70
2018-05-23T18:38:38.302Z,23.60
2018-05-23T18:41:11.712Z,23.50
2018-05-23T18:43:43.344Z,23.30
2018-05-23T18:46:15.568Z,23.30
2018-05-23T18:48:46.939Z,23.20
2018-05-23T18:51:18.825Z,23.20
2018-05-23T18:53:53.025Z,23.10
2018-05-23T18:56:24.777Z,23.00
2018-05-23T18:58:56.879Z,23.00
2018-05-23T19:01:29.445Z,22.90
2018-05-23T19:04:02.919Z,22.70
2018-05-23T19:06:34.196Z,22.70
2018-05-23T19:09:07.001Z,22.70
2018-05-23T19:11:37.979Z,22.60
2018-05-23T19:14:09.429Z,22.60
2018-05-23T19:16:41.057Z,22.50
2018-05-23T19:19:12.700Z,22.40
2018-05-23T19:21:43.979Z,22.40
2018-05-23T19:24:15.189Z,22.20
2018-05-23T19:26:46.766Z,22.10
2018-05-23T19:29:18.296Z,21.90
2018-05-23T19:31:49.352Z,21.80
2018-05-23T19:34:20.864Z,21.70
2018-05-23T19:36:52.445Z,21.60
2018-05-23T19:39:23.597Z,21.40
2018-05-23T19:41:55.870Z,21.20
2018-05-23T19:44:27.141Z,21.20
2018-05-23T19:46:59.629Z,21.10
2018-05-23T19:49:31.609Z,21.00
2018-05-23T19:52:03.634Z,21.00
2018-05-23T19:54:37.453Z,20.80
2018-05-23T19:57:10.082Z,20.80
2018-05-23T19:59:41.554Z,20.70
2018-05-23T20:02:12.824Z,20.60
2018-05-23T20:04:44.338Z,20.50
2018-05-23T20:07:16.338Z,20.30
2018-05-23T20:09:47.355Z,20.30
2018-05-23T20:12:21.092Z,20.20
2018-05-23T20:14:52.551Z,20.10
2018-05-23T20:17:24.011Z,20.00
2018-05-23T20:19:56.991Z,19.90
2018-05-23T20:22:29.168Z,19.80
2018-05-23T20:25:01.127Z,19.80
2018-05-23T20:27:36.464Z,19.70
2018-05-23T20:30:07.455Z,19.70
2018-05-23T20:32:39.009Z,19.70
2018-05-23T20:35:10.159Z,19.70
2018-05-23T20:37:40.939Z,19.60
2018-05-23T20:40:22.195Z,19.50
2018-05-23T20:43:17.905Z,19.40
2018-05-23T20:45:51.970Z,19.40
2018-05-23T20:48:24.125Z,19.40
2018-05-23T20:50:56.941Z,19.30
2018-05-23T20:53:27.915Z,19.30
2018-05-23T20:56:00.365Z,19.10
2018-05-23T20:58:36.509Z,19.10
2018-05-23T21:01:08.384Z,19.10
2018-05-23T21:03:40.789Z,19.00
2018-05-23T21:06:12.767Z,19.00
2018-05-23T21:08:44.862Z,18.90
2018-05-23T21:11:16.925Z,18.90
2018-05-23T21:13:48.871Z,18.90
2018-05-23T21:16:19.795Z,18.90
2018-05-23T21:18:51.417Z,18.80
2018-05-23T21:21:23.079Z,18.80
2018-05-23T21:23:54.916Z,18.80
2018-05-23T21:26:26.529Z,18.70
2018-05-23T21:28:58.774Z,18.70
2018-05-23T21:31:29.883Z,18.60
2018-05-23T21:34:00.939Z,18.50
2018-05-23T21:36:31.834Z,18.50
2018-05-23T21:39:04.295Z,18.40
2018-05-23T21:41:36.174Z,18.30
2018-05-23T21:44:07.391Z,18.20
2018-05-23T21:46:39.003Z,18.10
2018-05-23T21:49:10.253Z,18.00
2018-05-23T21:51:42.066Z,18.00
2018-05-23T21:54:13.315Z,17.90
2018-05-23T21:56:45.231Z,17.90
2018-05-23T21:59:16.677Z,17.80
2018-05-23T22:01:48.257Z,17.90
2018-05-23T22:04:19.244Z,17.80
2018-05-23T22:06:51.953Z,17.70
2018-05-23T22:09:22.964Z,17.70
2018-05-23T22:11:53.990Z,17.60
2018-05-23T22:14:25.459Z,17.50
2018-05-23T22:16:56.359Z,17.50
2018-05-23T22:19:27.193Z,17.40
2018-05-23T22:22:00.358Z,17.40
2018-05-23T22:24:32.085Z,17.30
2018-05-23T22:27:03.244Z,17.30
2018-05-23T22:29:34.805Z,17.30
2018-05-23T22:32:06.654Z,17.30
2018-05-23T22:34:38.313Z,17.30
2018-05-23T22:37:08.985Z,17.30
2018-05-23T22:39:40.431Z,17.30
2018-05-23T22:42:11.440Z,17.30
2018-05-23T22:44:42.532Z,17.30
2018-05-23T22:47:14.365Z,17.30
2018-05-23T22:49:45.185Z,17.30
2018-05-23T22:52:16.997Z,17.30
2018-05-23T22:54:51.160Z,17.20
2018-05-23T22:57:22.881Z,17.20
2018-05-23T22:59:53.975Z,17.20
2018-05-23T23:02:25.037Z,17.10
2018-05-23T23:04:56.702Z,17.20
2018-05-23T23:07:28.490Z,17.20
2018-05-23T23:09:59.711Z,17.10
2018-05-23T23:12:31.108Z,17.10
2018-05-23T23:15:02.718Z,17.00
2018-05-23T23:17:33.887Z,17.00
2018-05-23T23:20:04.771Z,17.00
2018-05-23T23:22:40.578Z,17.00
2018-05-23T23:25:11.834Z,16.90
2018-05-23T23:27:43.222Z,16.90
2018-05-23T23:30:14.044Z,16.90
2018-05-23T23:32:44.894Z,16.90
2018-05-23T23:35:17.659Z,16.90
2018-05-23T23:37:49.349Z,16.80
2018-05-23T23:40:20.391Z,16.80
2018-05-23T23:42:51.775Z,16.80
2018-05-23T23:45:22.709Z,16.80
2018-05-23T23:47:55.613Z,16.90
2018-05-23T23:50:26.403Z,16.90
2018-05-23T23:52:57.211Z,16.90
2018-05-23T23:55:29.476Z,16.90
2018-05-23T23:58:01.665Z,16.90
